Time,TemperatureF,DewpointF,PressureIn,WindDirection,WindDirectionDegrees,WindSpeedMPH,WindSpeedGustMPH,Humidity,HourlyPrecipIn,Conditions,Clouds,dailyrainin,SoftwareType,DateUTC
2013-05-13 00:02:00,45.0,37.0,-100.00,WSW,250,1.0,1.0,73,-99.99,,,-99.99,,2013-05-13 05:02:00,
2013-05-13 00:12:00,44.0,37.0,-100.00,NW,320,0.0,0.0,76,-99.99,,,-99.99,,2013-05-13 05:12:00,
2013-05-13 00:21:00,44.0,37.0,-100.00,NW,320,0.0,0.0,76,-99.99,,,-99.99,,2013-05-13 05:21:00,
2013-05-13 00:42:00,43.0,38.0,-100.00,West,275,0.0,0.0,82,-99.99,,,-99.99,,2013-05-13 05:42:00,
2013-05-13 00:52:00,43.0,39.0,-100.00,SSW,200,0.0,2.0,84,-99.99,,,-99.99,,2013-05-13 05:52:00,
2013-05-13 01:01:00,43.0,39.0,-100.00,SSW,200,0.0,2.0,84,-99.99,,,-99.99,,2013-05-13 06:01:00,
2013-05-13 01:11:00,43.0,38.0,-100.00,WSW,250,1.0,1.0,85,-99.99,,,-99.99,,2013-05-13 06:11:00,
2013-05-13 01:21:00,42.0,39.0,-100.00,SW,230,1.0,1.0,86,-99.99,,,-99.99,,2013-05-13 06:21:00,
2013-05-13 01:32:00,42.0,39.0,-100.00,SW,230,1.0,1.0,86,-99.99,,,-99.99,,2013-05-13 06:32:00,
2013-05-13 01:42:00,42.0,39.0,-100.00,SW,235,1.0,2.0,87,-99.99,,,-99.99,,2013-05-13 06:42:00,
2013-05-13 01:52:00,42.0,39.0,-100.00,West,275,1.0,1.0,89,-99.99,,,-99.99,,2013-05-13 06:52:00,
2013-05-13 02:01:00,42.0,39.0,-100.00,West,275,1.0,1.0,89,-99.99,,,-99.99,,2013-05-13 07:01:00,
2013-05-13 02:11:00,42.0,39.0,-100.00,SW,220,0.0,0.0,91,-99.99,,,-99.99,,2013-05-13 07:11:00,
2013-05-13 02:22:00,42.0,39.0,-100.00,SW,220,0.0,1.0,91,-99.99,,,-99.99,,2013-05-13 07:22:00,
2013-05-13 02:31:00,42.0,39.0,-100.00,SW,220,0.0,1.0,91,-99.99,,,-99.99,,2013-05-13 07:31:00,
2013-05-13 02:42:00,41.0,39.0,-100.00,WSW,245,2.0,2.0,92,-99.99,,,-99.99,,2013-05-13 07:42:00,
2013-05-13 02:52:00,41.0,39.0,-100.00,West,265,0.0,0.0,93,-99.99,,,-99.99,,2013-05-13 07:52:00,
2013-05-13 03:02:00,41.0,39.0,-100.00,West,265,0.0,0.0,93,-99.99,,,-99.99,,2013-05-13 08:02:00,
2013-05-13 03:11:00,41.0,39.0,-100.00,SSW,200,0.0,1.0,93,-99.99,,,-99.99,,2013-05-13 08:11:00,
2013-05-13 03:21:00,41.0,39.0,-100.00,WSW,255,0.0,0.0,93,-99.99,,,-99.99,,2013-05-13 08:21:00,
2013-05-13 03:31:00,41.0,39.0,-100.00,WSW,255,0.0,0.0,93,-99.99,,,-99.99,,2013-05-13 08:31:00,
2013-05-13 03:42:00,40.0,39.0,-100.00,SSW,195,0.0,1.0,94,-99.99,,,-99.99,,2013-05-13 08:42:00,
2013-05-13 03:52:00,40.0,39.0,-100.00,WNW,285,0.0,1.0,94,-99.99,,,-99.99,,2013-05-13 08:52:00,
2013-05-13 04:01:00,40.0,39.0,-100.00,WNW,285,0.0,1.0,94,-99.99,,,-99.99,,2013-05-13 09:01:00,
2013-05-13 04:11:00,40.0,38.0,-100.00,South,180,0.0,0.0,95,-99.99,,,-99.99,,2013-05-13 09:11:00,
2013-05-13 04:21:00,39.0,38.0,-100.00,WSW,250,0.0,0.0,95,-99.99,,,-99.99,,2013-05-13 09:21:00,
2013-05-13 04:33:00,39.0,38.0,-100.00,WSW,250,0.0,0.0,95,-99.99,,,-99.99,,2013-05-13 09:33:00,
2013-05-13 04:42:00,40.0,38.0,-100.00,WSW,255,0.0,0.0,95,-99.99,,,-99.99,,2013-05-13 09:42:00,
2013-05-13 04:52:00,40.0,38.0,-100.00,SW,215,1.0,1.0,95,-99.99,,,-99.99,,2013-05-13 09:52:00,
2013-05-13 05:03:00,40.0,38.0,-100.00,SW,215,1.0,1.0,95,-99.99,,,-99.99,,2013-05-13 10:03:00,
2013-05-13 05:12:00,39.0,38.0,-100.00,SSW,210,1.0,1.0,96,-99.99,,,-99.99,,2013-05-13 10:12:00,
2013-05-13 05:22:00,39.0,38.0,-100.00,SW,220,3.0,3.0,96,-99.99,,,-99.99,,2013-05-13 10:22:00,
2013-05-13 05:32:00,39.0,38.0,-100.00,SW,220,3.0,3.0,96,-99.99,,,-99.99,,2013-05-13 10:32:00,
2013-05-13 05:42:00,39.0,38.0,-100.00,SW,220,3.0,3.0,96,-99.99,,,-99.99,,2013-05-13 10:42:00,
2013-05-13 05:52:00,39.0,38.0,-100.00,SW,215,2.0,3.0,96,-99.99,,,-99.99,,2013-05-13 10:52:00,
2013-05-13 06:02:00,39.0,38.0,-100.00,SW,215,2.0,3.0,96,-99.99,,,-99.99,,2013-05-13 11:02:00,
2013-05-13 06:12:00,39.0,38.0,-100.00,SW,230,2.0,2.0,96,-99.99,,,-99.99,,2013-05-13 11:12:00,
2013-05-13 06:21:00,39.0,38.0,-100.00,SW,220,1.0,2.0,97,-99.99,,,-99.99,,2013-05-13 11:21:00,
2013-05-13 06:32:00,39.0,38.0,-100.00,SW,220,1.0,2.0,97,-99.99,,,-99.99,,2013-05-13 11:32:00,
2013-05-13 06:42:00,38.0,38.0,-100.00,SW,215,3.0,4.0,97,-99.99,,,-99.99,,2013-05-13 11:42:00,
2013-05-13 06:52:00,39.0,38.0,-100.00,SW,215,0.0,1.0,97,-99.99,,,-99.99,,2013-05-13 11:52:00,
2013-05-13 07:01:00,39.0,38.0,-100.00,SW,215,0.0,1.0,97,-99.99,,,-99.99,,2013-05-13 12:01:00,
2013-05-13 07:11:00,40.0,39.0,-100.00,SW,225,1.0,2.0,97,-99.99,,,-99.99,,2013-05-13 12:11:00,
2013-05-13 07:21:00,42.0,42.0,-100.00,WNW,285,0.0,1.0,97,-99.99,,,-99.99,,2013-05-13 12:21:00,
2013-05-13 07:32:00,42.0,42.0,-100.00,WNW,285,0.0,1.0,97,-99.99,,,-99.99,,2013-05-13 12:32:00,
2013-05-13 07:42:00,44.0,44.0,-100.00,SSW,210,0.0,1.0,97,-99.99,,,-99.99,,2013-05-13 12:42:00,
2013-05-13 07:52:00,46.0,45.0,-100.00,SW,235,0.0,1.0,97,-99.99,,,-99.99,,2013-05-13 12:52:00,
2013-05-13 08:01:00,46.0,45.0,-100.00,SW,235,0.0,1.0,97,-99.99,,,-99.99,,2013-05-13 13:01:00,
2013-05-13 08:11:00,48.0,45.0,-100.00,SW,225,1.0,1.0,92,-99.99,,,-99.99,,2013-05-13 13:11:00,
2013-05-13 08:21:00,50.0,46.0,-100.00,WNW,290,1.0,3.0,85,-99.99,,,-99.99,,2013-05-13 13:21:00,
2013-05-13 08:31:00,50.0,46.0,-100.00,WNW,290,1.0,3.0,85,-99.99,,,-99.99,,2013-05-13 13:31:00,
2013-05-13 08:42:00,52.0,41.0,-100.00,SSW,210,3.0,3.0,65,-99.99,,,-99.99,,2013-05-13 13:42:00,
2013-05-13 08:52:00,54.0,37.0,-100.00,WSW,245,4.0,8.0,51,-99.99,,,-99.99,,2013-05-13 13:52:00,
2013-05-13 09:02:00,54.0,37.0,-100.00,WSW,245,4.0,8.0,51,-99.99,,,-99.99,,2013-05-13 14:02:00,
2013-05-13 09:11:00,55.0,34.0,-100.00,SW,225,6.0,12.0,45,-99.99,,,-99.99,,2013-05-13 14:11:00,
2013-05-13 09:22:00,56.0,34.0,-100.00,SW,235,6.0,9.0,43,-99.99,,,-99.99,,2013-05-13 14:22:00,
2013-05-13 09:32:00,56.0,34.0,-100.00,SW,235,6.0,9.0,43,-99.99,,,-99.99,,2013-05-13 14:32:00,
2013-05-13 09:41:00,58.0,34.0,-100.00,SW,225,3.0,6.0,41,-99.99,,,-99.99,,2013-05-13 14:41:00,
2013-05-13 09:52:00,59.0,35.0,-100.00,SW,230,6.0,9.0,40,-99.99,,,-99.99,,2013-05-13 14:52:00,
2013-05-13 10:01:00,59.0,35.0,-100.00,SW,230,6.0,9.0,40,-99.99,,,-99.99,,2013-05-13 15:01:00,
2013-05-13 10:11:00,60.0,35.0,-100.00,WSW,250,6.0,8.0,39,-99.99,,,-99.99,,2013-05-13 15:11:00,
2013-05-13 10:21:00,61.0,34.0,-100.00,SW,215,3.0,6.0,36,-99.99,,,-99.99,,2013-05-13 15:21:00,
2013-05-13 10:31:00,61.0,34.0,-100.00,SW,215,3.0,6.0,36,-99.99,,,-99.99,,2013-05-13 15:31:00,
2013-05-13 10:42:00,62.0,35.0,-100.00,South,180,3.0,4.0,37,-99.99,,,-99.99,,2013-05-13 15:42:00,
2013-05-13 10:53:00,62.0,32.0,-100.00,WNW,285,4.0,8.0,32,-99.99,,,-99.99,,2013-05-13 15:53:00,
2013-05-13 11:03:00,62.0,32.0,-100.00,WNW,285,4.0,8.0,32,-99.99,,,-99.99,,2013-05-13 16:03:00,
2013-05-13 11:12:00,64.0,31.0,-100.00,West,265,6.0,9.0,29,-99.99,,,-99.99,,2013-05-13 16:12:00,
2013-05-13 11:21:00,64.0,28.0,-100.00,WNW,290,9.0,11.0,26,-99.99,,,-99.99,,2013-05-13 16:21:00,
2013-05-13 11:33:00,65.0,30.0,-100.00,South,175,2.0,6.0,26,-99.99,,,-99.99,,2013-05-13 16:33:00,
2013-05-13 11:42:00,65.0,30.0,-100.00,South,175,2.0,6.0,26,-99.99,,,-99.99,,2013-05-13 16:42:00,
2013-05-13 11:53:00,66.0,29.0,-100.00,SW,230,6.0,10.0,25,-99.99,,,-99.99,,2013-05-13 16:53:00,
2013-05-13 12:00:00,67.0,29.0,-100.00,West,275,3.0,4.0,24,-99.99,,,-99.99,,2013-05-13 17:00:00,
2013-05-13 12:02:00,66.0,29.0,-100.00,SW,230,6.0,10.0,25,-99.99,,,-99.99,,2013-05-13 17:02:00,
2013-05-13 12:12:00,66.0,29.0,-100.00,West,265,6.0,9.0,25,-99.99,,,-99.99,,2013-05-13 17:12:00,
2013-05-13 12:21:00,68.0,31.0,-100.00,West,260,6.0,8.0,25,-99.99,,,-99.99,,2013-05-13 17:21:00,
2013-05-13 12:32:00,68.0,31.0,-100.00,West,260,6.0,8.0,25,-99.99,,,-99.99,,2013-05-13 17:32:00,
2013-05-13 12:42:00,67.0,29.0,-100.00,West,275,3.0,4.0,24,-99.99,,,-99.99,,2013-05-13 17:42:00,
2013-05-13 12:54:00,67.0,29.0,-100.00,West,275,3.0,4.0,24,-99.99,,,-99.99,,2013-05-13 17:54:00,
2013-05-13 13:52:00,69.0,30.0,-100.00,West,270,4.0,6.0,24,-99.99,,,-99.99,,2013-05-13 18:52:00,
2013-05-13 14:00:00,68.0,31.0,-100.00,SSE,165,4.0,6.0,25,-99.99,,,-99.99,,2013-05-13 19:00:00,
2013-05-13 14:01:00,69.0,30.0,-100.00,West,270,4.0,6.0,24,-99.99,,,-99.99,,2013-05-13 19:01:00,
2013-05-13 14:11:00,68.0,32.0,-100.00,SE,145,4.0,8.0,26,-99.99,,,-99.99,,2013-05-13 19:11:00,
2013-05-13 14:21:00,68.0,30.0,-100.00,North,350,6.0,6.0,24,-99.99,,,-99.99,,2013-05-13 19:21:00,
2013-05-13 14:32:00,68.0,30.0,-100.00,North,350,6.0,6.0,24,-99.99,,,-99.99,,2013-05-13 19:32:00,
2013-05-13 14:44:00,68.0,31.0,-100.00,SSE,165,4.0,6.0,25,-99.99,,,-99.99,,2013-05-13 19:44:00,
2013-05-13 14:53:00,68.0,31.0,-100.00,SSE,165,4.0,6.0,25,-99.99,,,-99.99,,2013-05-13 19:53:00,
2013-05-13 15:11:00,70.0,33.0,-100.00,SSW,210,6.0,9.0,25,-99.99,,,-99.99,,2013-05-13 20:11:00,
2013-05-13 15:23:00,69.0,32.0,-100.00,WSW,240,6.0,10.0,25,-99.99,,,-99.99,,2013-05-13 20:23:00,
2013-05-13 15:33:00,69.0,32.0,-100.00,WSW,240,6.0,10.0,25,-99.99,,,-99.99,,2013-05-13 20:33:00,
2013-05-13 15:44:00,70.0,33.0,-100.00,East,80,3.0,4.0,25,-99.99,,,-99.99,,2013-05-13 20:44:00,
2013-05-13 15:53:00,70.0,32.0,-100.00,WSW,250,8.0,11.0,25,-99.99,,,-99.99,,2013-05-13 20:53:00,
2013-05-13 16:03:00,70.0,32.0,-100.00,WSW,250,8.0,11.0,25,-99.99,,,-99.99,,2013-05-13 21:03:00,
2013-05-13 16:14:00,69.0,32.0,-100.00,SSE,165,4.0,6.0,25,-99.99,,,-99.99,,2013-05-13 21:14:00,
2013-05-13 16:23:00,70.0,33.0,-100.00,SW,220,3.0,4.0,25,-99.99,,,-99.99,,2013-05-13 21:23:00,
2013-05-13 16:33:00,70.0,33.0,-100.00,SW,220,3.0,4.0,25,-99.99,,,-99.99,,2013-05-13 21:33:00,
2013-05-13 16:43:00,70.0,32.0,-100.00,SW,235,2.0,4.0,25,-99.99,,,-99.99,,2013-05-13 21:43:00,
2013-05-13 16:53:00,70.0,32.0,-100.00,SW,215,9.0,10.0,25,-99.99,,,-99.99,,2013-05-13 21:53:00,
2013-05-13 17:02:00,70.0,32.0,-100.00,SW,215,9.0,10.0,25,-99.99,,,-99.99,,2013-05-13 22:02:00,
2013-05-13 17:12:00,68.0,32.0,-100.00,SSW,200,4.0,9.0,26,-99.99,,,-99.99,,2013-05-13 22:12:00,
2013-05-13 17:23:00,70.0,33.0,-100.00,SW,230,6.0,10.0,26,-99.99,,,-99.99,,2013-05-13 22:23:00,
2013-05-13 17:32:00,70.0,33.0,-100.00,SW,230,6.0,10.0,26,-99.99,,,-99.99,,2013-05-13 22:32:00,
2013-05-13 17:43:00,70.0,33.0,-100.00,SSW,195,4.0,6.0,26,-99.99,,,-99.99,,2013-05-13 22:43:00,
2013-05-13 17:52:00,69.0,33.0,-100.00,SW,215,4.0,6.0,26,-99.99,,,-99.99,,2013-05-13 22:52:00,
2013-05-13 18:02:00,69.0,33.0,-100.00,SW,215,4.0,6.0,26,-99.99,,,-99.99,,2013-05-13 23:02:00,
2013-05-13 18:12:00,69.0,32.0,-100.00,South,190,6.0,9.0,26,-99.99,,,-99.99,,2013-05-13 23:12:00,
2013-05-13 18:23:00,69.0,33.0,-100.00,SSW,195,8.0,9.0,27,-99.99,,,-99.99,,2013-05-13 23:23:00,
2013-05-13 18:33:00,69.0,33.0,-100.00,SSW,195,8.0,9.0,27,-99.99,,,-99.99,,2013-05-13 23:33:00,
2013-05-13 18:42:00,69.0,34.0,-100.00,SSW,200,6.0,9.0,27,-99.99,,,-99.99,,2013-05-13 23:42:00,
2013-05-13 18:54:00,68.0,33.0,-100.00,South,185,4.0,8.0,27,-99.99,,,-99.99,,2013-05-13 23:54:00,
2013-05-13 19:02:00,68.0,33.0,-100.00,South,185,4.0,8.0,27,-99.99,,,-99.99,,2013-05-14 00:02:00,
2013-05-13 19:12:00,68.0,33.0,-100.00,South,180,6.0,6.0,27,-99.99,,,-99.99,,2013-05-14 00:12:00,
2013-05-13 19:22:00,66.0,32.0,-100.00,SSE,165,8.0,10.0,28,-99.99,,,-99.99,,2013-05-14 00:22:00,
2013-05-13 19:31:00,66.0,32.0,-100.00,SSE,165,8.0,10.0,28,-99.99,,,-99.99,,2013-05-14 00:31:00,
2013-05-13 19:41:00,66.0,32.0,-100.00,SSE,165,8.0,10.0,28,-99.99,,,-99.99,,2013-05-14 00:41:00,
2013-05-13 19:52:00,65.0,33.0,-100.00,SSE,165,3.0,4.0,30,-99.99,,,-99.99,,2013-05-14 00:52:00,
2013-05-13 20:02:00,65.0,33.0,-100.00,SSE,165,3.0,4.0,30,-99.99,,,-99.99,,2013-05-14 01:02:00,
2013-05-13 20:11:00,64.0,33.0,-100.00,SE,145,4.0,4.0,31,-99.99,,,-99.99,,2013-05-14 01:11:00,
2013-05-13 20:21:00,63.0,34.0,-100.00,SSE,150,4.0,4.0,33,-99.99,,,-99.99,,2013-05-14 01:21:00,
2013-05-13 20:32:00,63.0,34.0,-100.00,SSE,150,4.0,4.0,33,-99.99,,,-99.99,,2013-05-14 01:32:00,
2013-05-13 20:43:00,62.0,34.0,-100.00,SE,145,3.0,3.0,34,-99.99,,,-99.99,,2013-05-14 01:43:00,
2013-05-13 20:53:00,61.0,35.0,-100.00,SE,135,3.0,3.0,38,-99.99,,,-99.99,,2013-05-14 01:53:00,
2013-05-13 21:02:00,61.0,35.0,-100.00,SE,135,3.0,3.0,38,-99.99,,,-99.99,,2013-05-14 02:02:00,
2013-05-13 21:11:00,60.0,37.0,-100.00,SE,130,3.0,3.0,42,-99.99,,,-99.99,,2013-05-14 02:11:00,
2013-05-13 21:22:00,60.0,38.0,-100.00,SE,130,3.0,4.0,44,-99.99,,,-99.99,,2013-05-14 02:22:00,
2013-05-13 21:32:00,60.0,38.0,-100.00,SE,130,3.0,4.0,44,-99.99,,,-99.99,,2013-05-14 02:32:00,
2013-05-13 21:42:00,60.0,38.0,-100.00,SE,135,4.0,4.0,44,-99.99,,,-99.99,,2013-05-14 02:42:00,
2013-05-13 21:52:00,60.0,38.0,-100.00,ESE,115,3.0,6.0,43,-99.99,,,-99.99,,2013-05-14 02:52:00,
2013-05-13 22:01:00,60.0,38.0,-100.00,ESE,115,3.0,6.0,43,-99.99,,,-99.99,,2013-05-14 03:01:00,
2013-05-13 22:11:00,60.0,38.0,-100.00,ESE,120,3.0,4.0,44,-99.99,,,-99.99,,2013-05-14 03:11:00,
2013-05-13 22:21:00,60.0,38.0,-100.00,SE,130,4.0,6.0,44,-99.99,,,-99.99,,2013-05-14 03:21:00,
2013-05-13 22:33:00,60.0,38.0,-100.00,SE,130,4.0,6.0,44,-99.99,,,-99.99,,2013-05-14 03:33:00,
2013-05-13 22:42:00,59.0,37.0,-100.00,SE,125,3.0,4.0,44,-99.99,,,-99.99,,2013-05-14 03:42:00,
2013-05-13 22:53:00,60.0,37.0,-100.00,SE,140,4.0,6.0,43,-99.99,,,-99.99,,2013-05-14 03:53:00,
2013-05-13 23:02:00,60.0,37.0,-100.00,SE,140,4.0,6.0,43,-99.99,,,-99.99,,2013-05-14 04:02:00,
2013-05-13 23:13:00,59.0,37.0,-100.00,SE,145,4.0,4.0,43,-99.99,,,-99.99,,2013-05-14 04:13:00,
2013-05-13 23:23:00,59.0,36.0,-100.00,SSE,160,6.0,6.0,42,-99.99,,,-99.99,,2013-05-14 04:23:00,
2013-05-13 23:30:00,59.0,37.0,-100.00,SE,145,6.0,6.0,44,-99.99,,,-99.99,,2013-05-14 04:30:00,
2013-05-13 23:32:00,59.0,36.0,-100.00,SSE,160,6.0,6.0,42,-99.99,,,-99.99,,2013-05-14 04:32:00,
2013-05-13 23:43:00,59.0,36.0,-100.00,SE,145,6.0,8.0,42,-99.99,,,-99.99,,2013-05-14 04:43:00,
2013-05-13 23:53:00,59.0,36.0,-100.00,SE,145,4.0,6.0,43,-99.99,,,-99.99,,2013-05-14 04:53:00,